Baxter, Colorado
Current Conditions -  °F | °C
As of 2:53 PM on Monday 20 Oct 2014 (Local Time) from KPUB Reporting Station
Clear Clear  
Wind Chill: 75°   Ceiling: Unl
Heat Index: 75°   Visibility: 10mi
Dew Point: 36°   Wind: 15mph
Humidity: 24%   Direction: 110°ESE
Pressure: 30.1"   Gusts: 24mph
Location:  38.2482°N, 104.47°W
Report Text: KPUB 202053Z 11013G21KT 10SM CLR 24/02 A3010 RMK AO2 SLP153 T02390022 56024
Loading
Personal Weather Stations






























Interactive Weather Map
Tropical Storm Tracking
New forecast layout! Learn more

10-Day Weather Forecast

Advertisements
Track Severe Weather on mobile